sensor_id;sensor_type;location;lat;lon;timestamp;P1;durP1;ratioP1;P2;durP2;ratioP2
11604;SDS011;5858;43.076;25.626;2023-01-05T00:01:09;172.93;;;40.63;;
11604;SDS011;5858;43.076;25.626;2023-01-05T00:03:38;117.30;;;38.40;;
11604;SDS011;5858;43.076;25.626;2023-01-05T00:06:09;94.77;;;38.40;;
11604;SDS011;5858;43.076;25.626;2023-01-05T00:08:39;100.10;;;39.23;;
11604;SDS011;5858;43.076;25.626;2023-01-05T00:11:10;124.80;;;41.43;;
11604;SDS011;5858;43.076;25.626;2023-01-05T00:13:56;177.80;;;42.80;;
11604;SDS011;5858;43.076;25.626;2023-01-05T00:16:41;117.23;;;41.17;;
11604;SDS011;5858;43.076;25.626;2023-01-05T00:19:25;110.40;;;40.13;;
11604;SDS011;5858;43.076;25.626;2023-01-05T00:22:13;108.47;;;40.37;;
11604;SDS011;5858;43.076;25.626;2023-01-05T00:25:04;112.70;;;42.37;;
11604;SDS011;5858;43.076;25.626;2023-01-05T00:27:34;108.50;;;43.00;;
11604;SDS011;5858;43.076;25.626;2023-01-05T00:30:02;111.23;;;42.57;;
11604;SDS011;5858;43.076;25.626;2023-01-05T00:32:30;107.87;;;43.47;;
11604;SDS011;5858;43.076;25.626;2023-01-05T00:34:58;124.33;;;43.97;;
11604;SDS011;5858;43.076;25.626;2023-01-05T00:37:26;103.40;;;42.27;;
11604;SDS011;5858;43.076;25.626;2023-01-05T00:39:56;107.33;;;43.30;;
11604;SDS011;5858;43.076;25.626;2023-01-05T00:42:23;98.80;;;42.63;;
11604;SDS011;5858;43.076;25.626;2023-01-05T00:44:52;96.93;;;41.20;;
11604;SDS011;5858;43.076;25.626;2023-01-05T00:47:21;98.47;;;40.93;;
11604;SDS011;5858;43.076;25.626;2023-01-05T00:49:48;99.63;;;41.97;;
11604;SDS011;5858;43.076;25.626;2023-01-05T00:52:15;95.93;;;41.60;;
11604;SDS011;5858;43.076;25.626;2023-01-05T00:54:43;88.53;;;39.57;;
11604;SDS011;5858;43.076;25.626;2023-01-05T00:57:10;92.53;;;40.37;;
11604;SDS011;5858;43.076;25.626;2023-01-05T00:59:40;89.40;;;37.90;;
11604;SDS011;5858;43.076;25.626;2023-01-05T01:02:09;85.93;;;37.93;;
11604;SDS011;5858;43.076;25.626;2023-01-05T01:04:36;91.90;;;38.77;;
11604;SDS011;5858;43.076;25.626;2023-01-05T01:07:04;94.43;;;39.60;;
11604;SDS011;5858;43.076;25.626;2023-01-05T01:09:34;93.57;;;37.70;;
11604;SDS011;5858;43.076;25.626;2023-01-05T01:12:01;94.80;;;39.27;;
11604;SDS011;5858;43.076;25.626;2023-01-05T01:14:29;92.97;;;39.70;;
11604;SDS011;5858;43.076;25.626;2023-01-05T01:16:56;98.27;;;39.37;;
11604;SDS011;5858;43.076;25.626;2023-01-05T01:19:25;94.10;;;37.97;;
11604;SDS011;5858;43.076;25.626;2023-01-05T01:21:53;106.23;;;40.33;;
11604;SDS011;5858;43.076;25.626;2023-01-05T01:24:21;111.00;;;40.53;;
11604;SDS011;5858;43.076;25.626;2023-01-05T01:26:50;114.67;;;38.47;;
11604;SDS011;5858;43.076;25.626;2023-01-05T01:29:19;98.20;;;37.63;;
11604;SDS011;5858;43.076;25.626;2023-01-05T01:31:47;97.00;;;38.53;;
11604;SDS011;5858;43.076;25.626;2023-01-05T01:34:15;93.77;;;36.77;;
11604;SDS011;5858;43.076;25.626;2023-01-05T01:36:44;111.03;;;39.50;;
11604;SDS011;5858;43.076;25.626;2023-01-05T01:39:12;94.50;;;38.27;;
11604;SDS011;5858;43.076;25.626;2023-01-05T01:41:39;87.60;;;39.80;;
11604;SDS011;5858;43.076;25.626;2023-01-05T01:47:31;85.70;;;35.33;;
11604;SDS011;5858;43.076;25.626;2023-01-05T01:50:06;84.73;;;35.67;;
11604;SDS011;5858;43.076;25.626;2023-01-05T01:52:40;94.17;;;36.07;;
11604;SDS011;5858;43.076;25.626;2023-01-05T01:55:08;81.70;;;34.70;;
11604;SDS011;5858;43.076;25.626;2023-01-05T01:57:39;84.03;;;33.97;;
11604;SDS011;5858;43.076;25.626;2023-01-05T02:00:08;71.20;;;33.67;;
11604;SDS011;5858;43.076;25.626;2023-01-05T02:02:38;71.07;;;31.50;;
11604;SDS011;5858;43.076;25.626;2023-01-05T02:05:07;70.37;;;32.67;;
11604;SDS011;5858;43.076;25.626;2023-01-05T02:07:38;71.47;;;33.33;;
11604;SDS011;5858;43.076;25.626;2023-01-05T02:10:12;75.63;;;32.57;;
11604;SDS011;5858;43.076;25.626;2023-01-05T02:12:46;76.20;;;35.20;;
11604;SDS011;5858;43.076;25.626;2023-01-05T02:15:24;70.63;;;32.47;;
11604;SDS011;5858;43.076;25.626;2023-01-05T02:18:04;63.70;;;31.03;;
11604;SDS011;5858;43.076;25.626;2023-01-05T02:20:55;72.30;;;32.57;;
11604;SDS011;5858;43.076;25.626;2023-01-05T02:23:53;68.40;;;30.57;;
11604;SDS011;5858;43.076;25.626;2023-01-05T02:26:51;71.37;;;31.60;;
11604;SDS011;5858;43.076;25.626;2023-01-05T02:32:43;66.27;;;31.37;;
11604;SDS011;5858;43.076;25.626;2023-01-05T02:35:24;63.23;;;30.43;;
11604;SDS011;5858;43.076;25.626;2023-01-05T02:38:06;68.93;;;30.50;;
11604;SDS011;5858;43.076;25.626;2023-01-05T02:40:41;66.83;;;30.87;;
11604;SDS011;5858;43.076;25.626;2023-01-05T02:43:13;61.53;;;30.67;;
11604;SDS011;5858;43.076;25.626;2023-01-05T02:45:44;62.47;;;30.40;;
11604;SDS011;5858;43.076;25.626;2023-01-05T02:48:13;54.80;;;28.07;;
11604;SDS011;5858;43.076;25.626;2023-01-05T02:50:43;59.80;;;29.80;;
11604;SDS011;5858;43.076;25.626;2023-01-05T02:53:18;53.07;;;28.13;;
11604;SDS011;5858;43.076;25.626;2023-01-05T02:55:55;55.00;;;29.23;;
11604;SDS011;5858;43.076;25.626;2023-01-05T02:58:40;51.53;;;29.40;;
11604;SDS011;5858;43.076;25.626;2023-01-05T03:01:16;57.20;;;30.17;;
11604;SDS011;5858;43.076;25.626;2023-01-05T03:03:51;56.10;;;29.10;;
11604;SDS011;5858;43.076;25.626;2023-01-05T03:06:32;49.80;;;28.40;;
11604;SDS011;5858;43.076;25.626;2023-01-05T03:09:13;58.33;;;29.43;;
11604;SDS011;5858;43.076;25.626;2023-01-05T03:11:54;52.80;;;28.83;;
11604;SDS011;5858;43.076;25.626;2023-01-05T03:14:49;55.00;;;29.07;;
11604;SDS011;5858;43.076;25.626;2023-01-05T03:17:35;54.23;;;29.50;;
11604;SDS011;5858;43.076;25.626;2023-01-05T03:20:36;52.63;;;27.90;;
11604;SDS011;5858;43.076;25.626;2023-01-05T03:23:18;55.47;;;29.40;;
11604;SDS011;5858;43.076;25.626;2023-01-05T03:26:08;62.27;;;30.57;;
11604;SDS011;5858;43.076;25.626;2023-01-05T03:29:04;63.07;;;30.43;;
11604;SDS011;5858;43.076;25.626;2023-01-05T03:32:05;55.13;;;29.20;;
11604;SDS011;5858;43.076;25.626;2023-01-05T03:35:08;62.83;;;30.43;;
11604;SDS011;5858;43.076;25.626;2023-01-05T03:38:14;59.10;;;29.63;;
11604;SDS011;5858;43.076;25.626;2023-01-05T03:41:21;54.77;;;28.63;;
11604;SDS011;5858;43.076;25.626;2023-01-05T03:46:58;60.90;;;30.33;;
11604;SDS011;5858;43.076;25.626;2023-01-05T03:49:30;61.63;;;31.60;;
11604;SDS011;5858;43.076;25.626;2023-01-05T03:55:16;58.97;;;30.43;;
11604;SDS011;5858;43.076;25.626;2023-01-05T03:57:58;63.07;;;29.90;;
11604;SDS011;5858;43.076;25.626;2023-01-05T04:00:40;59.93;;;30.13;;
11604;SDS011;5858;43.076;25.626;2023-01-05T04:03:10;60.50;;;30.13;;
11604;SDS011;5858;43.076;25.626;2023-01-05T04:05:55;59.73;;;30.77;;
11604;SDS011;5858;43.076;25.626;2023-01-05T04:08:44;64.40;;;31.10;;
11604;SDS011;5858;43.076;25.626;2023-01-05T04:11:38;61.20;;;30.03;;
11604;SDS011;5858;43.076;25.626;2023-01-05T04:14:30;58.63;;;30.20;;
11604;SDS011;5858;43.076;25.626;2023-01-05T04:17:03;64.10;;;31.73;;
11604;SDS011;5858;43.076;25.626;2023-01-05T04:19:39;77.27;;;35.83;;
11604;SDS011;5858;43.076;25.626;2023-01-05T04:22:40;68.27;;;32.67;;
11604;SDS011;5858;43.076;25.626;2023-01-05T04:25:11;74.17;;;34.73;;
11604;SDS011;5858;43.076;25.626;2023-01-05T04:27:49;71.13;;;33.57;;
11604;SDS011;5858;43.076;25.626;2023-01-05T04:30:26;67.43;;;33.87;;
11604;SDS011;5858;43.076;25.626;2023-01-05T04:33:11;66.73;;;31.80;;
11604;SDS011;5858;43.076;25.626;2023-01-05T04:36:17;69.83;;;34.03;;
11604;SDS011;5858;43.076;25.626;2023-01-05T04:38:57;68.70;;;31.80;;
11604;SDS011;5858;43.076;25.626;2023-01-05T04:41:24;62.60;;;30.80;;
11604;SDS011;5858;43.076;25.626;2023-01-05T04:43:53;67.03;;;32.67;;
11604;SDS011;5858;43.076;25.626;2023-01-05T04:46:21;69.97;;;32.77;;
11604;SDS011;5858;43.076;25.626;2023-01-05T04:49:03;69.87;;;32.17;;
11604;SDS011;5858;43.076;25.626;2023-01-05T04:51:35;81.63;;;35.03;;
11604;SDS011;5858;43.076;25.626;2023-01-05T04:54:02;80.10;;;36.83;;
11604;SDS011;5858;43.076;25.626;2023-01-05T04:56:30;72.97;;;34.77;;
11604;SDS011;5858;43.076;25.626;2023-01-05T04:59:03;70.93;;;32.40;;
11604;SDS011;5858;43.076;25.626;2023-01-05T05:01:33;81.40;;;36.70;;
11604;SDS011;5858;43.076;25.626;2023-01-05T05:04:00;94.90;;;41.30;;
11604;SDS011;5858;43.076;25.626;2023-01-05T05:06:28;84.77;;;41.03;;
11604;SDS011;5858;43.076;25.626;2023-01-05T05:08:55;80.83;;;37.53;;
11604;SDS011;5858;43.076;25.626;2023-01-05T05:11:24;73.90;;;34.50;;
11604;SDS011;5858;43.076;25.626;2023-01-05T05:13:54;72.37;;;34.50;;
11604;SDS011;5858;43.076;25.626;2023-01-05T05:16:23;82.50;;;36.07;;
11604;SDS011;5858;43.076;25.626;2023-01-05T05:18:51;74.57;;;36.37;;
11604;SDS011;5858;43.076;25.626;2023-01-05T05:21:18;69.40;;;36.13;;
11604;SDS011;5858;43.076;25.626;2023-01-05T05:23:48;62.33;;;33.07;;
11604;SDS011;5858;43.076;25.626;2023-01-05T05:26:15;64.50;;;30.77;;
11604;SDS011;5858;43.076;25.626;2023-01-05T05:28:43;67.87;;;32.23;;
11604;SDS011;5858;43.076;25.626;2023-01-05T05:31:11;72.53;;;34.07;;
11604;SDS011;5858;43.076;25.626;2023-01-05T05:33:50;74.40;;;34.07;;
11604;SDS011;5858;43.076;25.626;2023-01-05T05:36:18;75.53;;;34.63;;
11604;SDS011;5858;43.076;25.626;2023-01-05T05:38:46;80.00;;;35.27;;
11604;SDS011;5858;43.076;25.626;2023-01-05T05:41:13;67.53;;;33.27;;
11604;SDS011;5858;43.076;25.626;2023-01-05T05:43:45;73.90;;;34.20;;
11604;SDS011;5858;43.076;25.626;2023-01-05T05:46:12;78.77;;;35.53;;
11604;SDS011;5858;43.076;25.626;2023-01-05T05:48:56;75.20;;;36.37;;
11604;SDS011;5858;43.076;25.626;2023-01-05T05:51:27;68.97;;;35.23;;
11604;SDS011;5858;43.076;25.626;2023-01-05T05:53:58;73.97;;;34.77;;
11604;SDS011;5858;43.076;25.626;2023-01-05T05:56:32;74.73;;;35.67;;
11604;SDS011;5858;43.076;25.626;2023-01-05T05:59:10;81.23;;;39.17;;
11604;SDS011;5858;43.076;25.626;2023-01-05T06:01:43;76.87;;;38.67;;
11604;SDS011;5858;43.076;25.626;2023-01-05T06:04:17;85.10;;;40.80;;
11604;SDS011;5858;43.076;25.626;2023-01-05T06:06:47;80.73;;;39.97;;
11604;SDS011;5858;43.076;25.626;2023-01-05T06:09:36;77.70;;;38.77;;
11604;SDS011;5858;43.076;25.626;2023-01-05T06:12:12;75.83;;;37.10;;
11604;SDS011;5858;43.076;25.626;2023-01-05T06:14:40;77.33;;;37.00;;
11604;SDS011;5858;43.076;25.626;2023-01-05T06:17:12;81.30;;;39.03;;
11604;SDS011;5858;43.076;25.626;2023-01-05T06:19:41;95.17;;;39.17;;
11604;SDS011;5858;43.076;25.626;2023-01-05T06:22:08;77.73;;;37.97;;
11604;SDS011;5858;43.076;25.626;2023-01-05T06:24:44;128.50;;;41.80;;
11604;SDS011;5858;43.076;25.626;2023-01-05T06:27:18;81.93;;;40.47;;
11604;SDS011;5858;43.076;25.626;2023-01-05T06:29:46;85.33;;;37.80;;
11604;SDS011;5858;43.076;25.626;2023-01-05T06:32:14;78.67;;;36.00;;
11604;SDS011;5858;43.076;25.626;2023-01-05T06:34:48;79.77;;;37.33;;
11604;SDS011;5858;43.076;25.626;2023-01-05T06:37:18;93.10;;;38.20;;
11604;SDS011;5858;43.076;25.626;2023-01-05T06:39:51;87.23;;;41.43;;
11604;SDS011;5858;43.076;25.626;2023-01-05T06:42:20;91.60;;;45.87;;
11604;SDS011;5858;43.076;25.626;2023-01-05T06:44:47;92.13;;;50.57;;
11604;SDS011;5858;43.076;25.626;2023-01-05T06:47:15;104.27;;;52.63;;
11604;SDS011;5858;43.076;25.626;2023-01-05T06:49:42;91.67;;;45.10;;
11604;SDS011;5858;43.076;25.626;2023-01-05T06:52:11;95.47;;;45.83;;
11604;SDS011;5858;43.076;25.626;2023-01-05T06:54:39;160.83;;;47.53;;
11604;SDS011;5858;43.076;25.626;2023-01-05T06:57:06;225.07;;;52.83;;
11604;SDS011;5858;43.076;25.626;2023-01-05T06:59:34;221.00;;;51.80;;
11604;SDS011;5858;43.076;25.626;2023-01-05T07:02:01;164.90;;;50.07;;
11604;SDS011;5858;43.076;25.626;2023-01-05T07:04:28;156.27;;;50.53;;
11604;SDS011;5858;43.076;25.626;2023-01-05T07:06:55;139.03;;;45.80;;
11604;SDS011;5858;43.076;25.626;2023-01-05T07:09:24;113.53;;;42.83;;
11604;SDS011;5858;43.076;25.626;2023-01-05T07:11:51;132.67;;;46.97;;
11604;SDS011;5858;43.076;25.626;2023-01-05T07:14:19;173.30;;;50.27;;
11604;SDS011;5858;43.076;25.626;2023-01-05T07:16:46;121.67;;;55.60;;
11604;SDS011;5858;43.076;25.626;2023-01-05T07:19:13;111.93;;;48.23;;
11604;SDS011;5858;43.076;25.626;2023-01-05T07:21:45;88.57;;;42.73;;
11604;SDS011;5858;43.076;25.626;2023-01-05T07:24:17;143.33;;;45.10;;
11604;SDS011;5858;43.076;25.626;2023-01-05T07:26:59;96.90;;;41.60;;
11604;SDS011;5858;43.076;25.626;2023-01-05T07:29:29;125.33;;;39.63;;
11604;SDS011;5858;43.076;25.626;2023-01-05T07:32:00;108.80;;;39.60;;
11604;SDS011;5858;43.076;25.626;2023-01-05T07:34:28;173.67;;;42.33;;
11604;SDS011;5858;43.076;25.626;2023-01-05T07:36:57;87.03;;;36.53;;
11604;SDS011;5858;43.076;25.626;2023-01-05T07:39:25;139.53;;;42.73;;
11604;SDS011;5858;43.076;25.626;2023-01-05T07:41:57;89.37;;;39.07;;
11604;SDS011;5858;43.076;25.626;2023-01-05T07:44:30;94.43;;;38.77;;
11604;SDS011;5858;43.076;25.626;2023-01-05T07:47:09;69.23;;;35.17;;
11604;SDS011;5858;43.076;25.626;2023-01-05T07:49:50;66.63;;;37.37;;
11604;SDS011;5858;43.076;25.626;2023-01-05T07:52:18;61.47;;;35.17;;
11604;SDS011;5858;43.076;25.626;2023-01-05T07:54:47;62.97;;;35.90;;
11604;SDS011;5858;43.076;25.626;2023-01-05T07:57:15;59.80;;;34.87;;
11604;SDS011;5858;43.076;25.626;2023-01-05T07:59:46;56.23;;;34.77;;
11604;SDS011;5858;43.076;25.626;2023-01-05T08:02:16;52.63;;;31.97;;
11604;SDS011;5858;43.076;25.626;2023-01-05T08:04:46;56.13;;;31.53;;
11604;SDS011;5858;43.076;25.626;2023-01-05T08:07:14;52.43;;;30.87;;
11604;SDS011;5858;43.076;25.626;2023-01-05T08:09:46;50.37;;;30.90;;
11604;SDS011;5858;43.076;25.626;2023-01-05T08:12:32;55.37;;;34.23;;
11604;SDS011;5858;43.076;25.626;2023-01-05T08:15:19;55.97;;;32.97;;
11604;SDS011;5858;43.076;25.626;2023-01-05T08:17:47;66.90;;;36.77;;
11604;SDS011;5858;43.076;25.626;2023-01-05T08:20:14;53.17;;;32.27;;
11604;SDS011;5858;43.076;25.626;2023-01-05T08:22:42;54.30;;;32.23;;
11604;SDS011;5858;43.076;25.626;2023-01-05T08:25:09;50.80;;;32.57;;
11604;SDS011;5858;43.076;25.626;2023-01-05T08:27:37;44.30;;;29.60;;
11604;SDS011;5858;43.076;25.626;2023-01-05T08:30:05;49.10;;;29.80;;
11604;SDS011;5858;43.076;25.626;2023-01-05T08:32:38;42.07;;;27.10;;
11604;SDS011;5858;43.076;25.626;2023-01-05T08:35:05;41.73;;;30.33;;
11604;SDS011;5858;43.076;25.626;2023-01-05T08:37:33;50.40;;;30.73;;
11604;SDS011;5858;43.076;25.626;2023-01-05T08:40:00;48.93;;;30.80;;
11604;SDS011;5858;43.076;25.626;2023-01-05T08:42:28;45.87;;;30.53;;
11604;SDS011;5858;43.076;25.626;2023-01-05T08:44:56;45.70;;;30.43;;
11604;SDS011;5858;43.076;25.626;2023-01-05T08:47:27;43.30;;;28.47;;
11604;SDS011;5858;43.076;25.626;2023-01-05T08:50:12;42.90;;;27.50;;
11604;SDS011;5858;43.076;25.626;2023-01-05T08:52:40;45.67;;;27.40;;
11604;SDS011;5858;43.076;25.626;2023-01-05T08:55:08;43.20;;;28.00;;
11604;SDS011;5858;43.076;25.626;2023-01-05T08:57:35;42.67;;;26.73;;
11604;SDS011;5858;43.076;25.626;2023-01-05T09:00:04;37.93;;;25.27;;
11604;SDS011;5858;43.076;25.626;2023-01-05T09:02:33;38.63;;;25.40;;
11604;SDS011;5858;43.076;25.626;2023-01-05T09:05:00;35.80;;;23.50;;
11604;SDS011;5858;43.076;25.626;2023-01-05T09:07:27;34.27;;;23.13;;
11604;SDS011;5858;43.076;25.626;2023-01-05T09:09:54;38.90;;;24.10;;
11604;SDS011;5858;43.076;25.626;2023-01-05T09:12:22;34.03;;;21.40;;
11604;SDS011;5858;43.076;25.626;2023-01-05T09:14:49;33.53;;;20.90;;
11604;SDS011;5858;43.076;25.626;2023-01-05T09:17:21;29.07;;;20.57;;
11604;SDS011;5858;43.076;25.626;2023-01-05T09:19:48;36.90;;;22.67;;
11604;SDS011;5858;43.076;25.626;2023-01-05T09:22:15;32.50;;;22.00;;
11604;SDS011;5858;43.076;25.626;2023-01-05T09:24:46;32.93;;;21.73;;
11604;SDS011;5858;43.076;25.626;2023-01-05T09:27:14;33.83;;;21.27;;
11604;SDS011;5858;43.076;25.626;2023-01-05T09:29:41;41.93;;;20.97;;
11604;SDS011;5858;43.076;25.626;2023-01-05T09:32:28;30.77;;;19.10;;
11604;SDS011;5858;43.076;25.626;2023-01-05T09:34:56;25.13;;;17.27;;
11604;SDS011;5858;43.076;25.626;2023-01-05T09:37:24;25.43;;;16.63;;
11604;SDS011;5858;43.076;25.626;2023-01-05T09:39:52;27.00;;;17.13;;
11604;SDS011;5858;43.076;25.626;2023-01-05T09:42:31;24.83;;;16.63;;
11604;SDS011;5858;43.076;25.626;2023-01-05T09:45:15;21.17;;;15.37;;
11604;SDS011;5858;43.076;25.626;2023-01-05T09:48:10;24.00;;;15.33;;
11604;SDS011;5858;43.076;25.626;2023-01-05T09:50:59;25.37;;;17.53;;
11604;SDS011;5858;43.076;25.626;2023-01-05T10:00:27;26.57;;;17.00;;
11604;SDS011;5858;43.076;25.626;2023-01-05T10:03:05;26.33;;;17.63;;
11604;SDS011;5858;43.076;25.626;2023-01-05T10:05:49;26.63;;;17.23;;
11604;SDS011;5858;43.076;25.626;2023-01-05T10:08:47;25.37;;;16.97;;
11604;SDS011;5858;43.076;25.626;2023-01-05T10:11:17;21.07;;;15.30;;
11604;SDS011;5858;43.076;25.626;2023-01-05T10:14:08;19.47;;;13.77;;
11604;SDS011;5858;43.076;25.626;2023-01-05T10:16:55;21.13;;;14.33;;
11604;SDS011;5858;43.076;25.626;2023-01-05T10:19:24;21.60;;;14.63;;
11604;SDS011;5858;43.076;25.626;2023-01-05T10:21:56;24.33;;;14.90;;
11604;SDS011;5858;43.076;25.626;2023-01-05T10:24:32;28.00;;;17.63;;
11604;SDS011;5858;43.076;25.626;2023-01-05T10:27:11;21.33;;;12.70;;
11604;SDS011;5858;43.076;25.626;2023-01-05T10:29:45;12.97;;;9.83;;
11604;SDS011;5858;43.076;25.626;2023-01-05T10:32:22;14.87;;;10.30;;
11604;SDS011;5858;43.076;25.626;2023-01-05T10:34:55;13.53;;;9.77;;
11604;SDS011;5858;43.076;25.626;2023-01-05T10:37:37;13.00;;;9.57;;
11604;SDS011;5858;43.076;25.626;2023-01-05T10:40:22;14.20;;;9.80;;
11604;SDS011;5858;43.076;25.626;2023-01-05T10:43:01;14.67;;;9.37;;
11604;SDS011;5858;43.076;25.626;2023-01-05T10:45:46;13.10;;;9.77;;
11604;SDS011;5858;43.076;25.626;2023-01-05T10:48:14;11.23;;;8.47;;
11604;SDS011;5858;43.076;25.626;2023-01-05T10:50:52;11.17;;;7.50;;
11604;SDS011;5858;43.076;25.626;2023-01-05T10:53:34;14.10;;;8.87;;
11604;SDS011;5858;43.076;25.626;2023-01-05T10:56:04;8.83;;;6.53;;
11604;SDS011;5858;43.076;25.626;2023-01-05T10:58:42;10.87;;;7.53;;
11604;SDS011;5858;43.076;25.626;2023-01-05T11:01:18;10.47;;;7.17;;
11604;SDS011;5858;43.076;25.626;2023-01-05T11:06:19;9.90;;;6.50;;
11604;SDS011;5858;43.076;25.626;2023-01-05T11:07:47;10.23;;;6.13;;
11604;SDS011;5858;43.076;25.626;2023-01-05T11:10:20;9.73;;;7.37;;
11604;SDS011;5858;43.076;25.626;2023-01-05T11:13:02;11.63;;;7.03;;
11604;SDS011;5858;43.076;25.626;2023-01-05T11:15:32;12.23;;;7.53;;
11604;SDS011;5858;43.076;25.626;2023-01-05T11:18:06;9.90;;;6.10;;
11604;SDS011;5858;43.076;25.626;2023-01-05T11:21:03;9.13;;;7.03;;
11604;SDS011;5858;43.076;25.626;2023-01-05T11:23:35;9.33;;;6.53;;
11604;SDS011;5858;43.076;25.626;2023-01-05T11:35:17;9.60;;;6.37;;
11604;SDS011;5858;43.076;25.626;2023-01-05T11:37:49;9.47;;;6.97;;
11604;SDS011;5858;43.076;25.626;2023-01-05T11:40:18;8.57;;;7.23;;
11604;SDS011;5858;43.076;25.626;2023-01-05T11:42:52;14.93;;;5.83;;
11604;SDS011;5858;43.076;25.626;2023-01-05T11:45:23;7.47;;;5.10;;
11604;SDS011;5858;43.076;25.626;2023-01-05T11:47:53;9.67;;;5.33;;
11604;SDS011;5858;43.076;25.626;2023-01-05T11:50:24;7.20;;;5.50;;
11604;SDS011;5858;43.076;25.626;2023-01-05T11:52:53;6.70;;;5.17;;
11604;SDS011;5858;43.076;25.626;2023-01-05T11:55:31;7.70;;;5.70;;
11604;SDS011;5858;43.076;25.626;2023-01-05T11:58:14;6.93;;;5.60;;
11604;SDS011;5858;43.076;25.626;2023-01-05T12:01:08;7.37;;;4.83;;
11604;SDS011;5858;43.076;25.626;2023-01-05T12:03:56;9.00;;;5.00;;
11604;SDS011;5858;43.076;25.626;2023-01-05T12:06:34;7.13;;;5.20;;
11604;SDS011;5858;43.076;25.626;2023-01-05T12:09:13;9.47;;;4.83;;
11604;SDS011;5858;43.076;25.626;2023-01-05T12:11:48;9.20;;;4.97;;
11604;SDS011;5858;43.076;25.626;2023-01-05T12:14:35;6.63;;;5.93;;
11604;SDS011;5858;43.076;25.626;2023-01-05T12:17:24;9.40;;;8.00;;
11604;SDS011;5858;43.076;25.626;2023-01-05T12:20:05;7.73;;;5.77;;
11604;SDS011;5858;43.076;25.626;2023-01-05T12:22:55;7.67;;;5.13;;
11604;SDS011;5858;43.076;25.626;2023-01-05T12:25:36;7.83;;;4.67;;
11604;SDS011;5858;43.076;25.626;2023-01-05T12:28:22;6.03;;;4.50;;
11604;SDS011;5858;43.076;25.626;2023-01-05T12:31:03;6.27;;;4.20;;
11604;SDS011;5858;43.076;25.626;2023-01-05T12:33:57;6.53;;;4.97;;
11604;SDS011;5858;43.076;25.626;2023-01-05T12:36:35;6.53;;;4.97;;
11604;SDS011;5858;43.076;25.626;2023-01-05T12:39:16;9.37;;;6.10;;
11604;SDS011;5858;43.076;25.626;2023-01-05T12:42:17;6.87;;;5.37;;
11604;SDS011;5858;43.076;25.626;2023-01-05T12:45:21;6.03;;;4.77;;
11604;SDS011;5858;43.076;25.626;2023-01-05T12:47:56;9.70;;;5.93;;
11604;SDS011;5858;43.076;25.626;2023-01-05T12:50:31;7.60;;;5.97;;
11604;SDS011;5858;43.076;25.626;2023-01-05T12:53:10;10.10;;;5.63;;
11604;SDS011;5858;43.076;25.626;2023-01-05T12:55:46;11.57;;;6.73;;
11604;SDS011;5858;43.076;25.626;2023-01-05T12:58:17;10.10;;;6.40;;
11604;SDS011;5858;43.076;25.626;2023-01-05T13:00:55;8.63;;;6.50;;
11604;SDS011;5858;43.076;25.626;2023-01-05T13:03:43;9.90;;;6.30;;
11604;SDS011;5858;43.076;25.626;2023-01-05T13:06:30;10.80;;;6.87;;
11604;SDS011;5858;43.076;25.626;2023-01-05T13:12:06;10.63;;;7.40;;
11604;SDS011;5858;43.076;25.626;2023-01-05T13:14:46;13.67;;;7.87;;
11604;SDS011;5858;43.076;25.626;2023-01-05T13:20:44;12.07;;;9.60;;
11604;SDS011;5858;43.076;25.626;2023-01-05T13:23:18;59.53;;;53.13;;
11604;SDS011;5858;43.076;25.626;2023-01-05T13:25:52;19.83;;;16.37;;
11604;SDS011;5858;43.076;25.626;2023-01-05T13:28:34;26.33;;;17.70;;
11604;SDS011;5858;43.076;25.626;2023-01-05T13:40:50;10.77;;;6.77;;
11604;SDS011;5858;43.076;25.626;2023-01-05T13:46:36;13.03;;;6.57;;
11604;SDS011;5858;43.076;25.626;2023-01-05T13:49:30;8.47;;;6.13;;
11604;SDS011;5858;43.076;25.626;2023-01-05T13:52:18;12.93;;;6.30;;
11604;SDS011;5858;43.076;25.626;2023-01-05T13:55:00;13.63;;;7.07;;
11604;SDS011;5858;43.076;25.626;2023-01-05T13:57:35;8.70;;;6.67;;
11604;SDS011;5858;43.076;25.626;2023-01-05T14:00:15;14.40;;;8.83;;
11604;SDS011;5858;43.076;25.626;2023-01-05T14:03:03;19.57;;;9.73;;
11604;SDS011;5858;43.076;25.626;2023-01-05T14:05:55;13.67;;;7.40;;
11604;SDS011;5858;43.076;25.626;2023-01-05T14:08:25;15.03;;;7.20;;
11604;SDS011;5858;43.076;25.626;2023-01-05T14:11:09;19.10;;;9.70;;
11604;SDS011;5858;43.076;25.626;2023-01-05T14:13:43;28.33;;;11.40;;
11604;SDS011;5858;43.076;25.626;2023-01-05T14:19:12;49.27;;;23.03;;
11604;SDS011;5858;43.076;25.626;2023-01-05T14:22:00;20.70;;;11.30;;
11604;SDS011;5858;43.076;25.626;2023-01-05T14:24:31;23.87;;;13.47;;
11604;SDS011;5858;43.076;25.626;2023-01-05T14:27:06;16.80;;;8.80;;
11604;SDS011;5858;43.076;25.626;2023-01-05T14:32:30;18.03;;;10.30;;
11604;SDS011;5858;43.076;25.626;2023-01-05T14:35:03;19.93;;;11.80;;
11604;SDS011;5858;43.076;25.626;2023-01-05T14:37:35;29.60;;;13.83;;
11604;SDS011;5858;43.076;25.626;2023-01-05T14:40:14;30.10;;;11.57;;
11604;SDS011;5858;43.076;25.626;2023-01-05T14:42:50;62.57;;;26.90;;
11604;SDS011;5858;43.076;25.626;2023-01-05T14:45:20;21.63;;;10.47;;
11604;SDS011;5858;43.076;25.626;2023-01-05T14:47:49;13.27;;;8.40;;
11604;SDS011;5858;43.076;25.626;2023-01-05T14:50:30;17.30;;;8.30;;
11604;SDS011;5858;43.076;25.626;2023-01-05T14:53:01;21.20;;;10.60;;
11604;SDS011;5858;43.076;25.626;2023-01-05T14:55:32;23.27;;;10.70;;
11604;SDS011;5858;43.076;25.626;2023-01-05T14:58:02;16.83;;;9.60;;
11604;SDS011;5858;43.076;25.626;2023-01-05T15:00:37;24.67;;;13.43;;
11604;SDS011;5858;43.076;25.626;2023-01-05T15:03:14;22.77;;;10.13;;
11604;SDS011;5858;43.076;25.626;2023-01-05T15:06:01;39.77;;;17.73;;
11604;SDS011;5858;43.076;25.626;2023-01-05T15:12:05;17.97;;;11.47;;
11604;SDS011;5858;43.076;25.626;2023-01-05T15:14:49;24.40;;;13.17;;
11604;SDS011;5858;43.076;25.626;2023-01-05T15:23:44;22.43;;;9.57;;
11604;SDS011;5858;43.076;25.626;2023-01-05T15:26:39;23.37;;;10.00;;
11604;SDS011;5858;43.076;25.626;2023-01-05T15:29:36;24.47;;;9.90;;
11604;SDS011;5858;43.076;25.626;2023-01-05T15:32:25;34.83;;;12.40;;
11604;SDS011;5858;43.076;25.626;2023-01-05T15:37:57;24.80;;;11.97;;
11604;SDS011;5858;43.076;25.626;2023-01-05T15:40:39;27.00;;;11.77;;
11604;SDS011;5858;43.076;25.626;2023-01-05T15:43:10;23.37;;;11.30;;
11604;SDS011;5858;43.076;25.626;2023-01-05T15:45:42;27.30;;;12.53;;
11604;SDS011;5858;43.076;25.626;2023-01-05T15:48:25;27.57;;;11.87;;
11604;SDS011;5858;43.076;25.626;2023-01-05T15:51:04;30.43;;;16.73;;
11604;SDS011;5858;43.076;25.626;2023-01-05T15:53:33;39.30;;;19.47;;
11604;SDS011;5858;43.076;25.626;2023-01-05T15:56:04;30.97;;;14.77;;
11604;SDS011;5858;43.076;25.626;2023-01-05T15:58:41;31.17;;;16.43;;
11604;SDS011;5858;43.076;25.626;2023-01-05T16:01:11;35.53;;;17.60;;
11604;SDS011;5858;43.076;25.626;2023-01-05T16:03:43;47.37;;;21.50;;
11604;SDS011;5858;43.076;25.626;2023-01-05T16:06:14;37.40;;;20.33;;
11604;SDS011;5858;43.076;25.626;2023-01-05T16:08:46;45.27;;;19.27;;
11604;SDS011;5858;43.076;25.626;2023-01-05T16:11:16;56.57;;;24.20;;
11604;SDS011;5858;43.076;25.626;2023-01-05T16:13:59;43.57;;;21.07;;
11604;SDS011;5858;43.076;25.626;2023-01-05T16:16:28;67.37;;;23.63;;
11604;SDS011;5858;43.076;25.626;2023-01-05T16:19:03;43.10;;;20.17;;